Time;durP1;ratioP1;P1;durP2;ratioP2;P2;SDS_P1;SDS_P2;PMS_P1;PMS_P2;Temp;Humidity;BMP_temperature;BMP_pressure;BME280_temperature;BME280_humidity;BME280_pressure;Samples;Min_cycle;Max_cycle;Signal;HPM_P1;HPM_P2
2020/12/12 00:01:42;;;;;;;14.27;8.40;;;1.60;78.00;;;;;;5038244;28;20033;-62
2020/12/12 00:04:08;;;;;;;13.60;8.30;;;1.60;77.80;;;;;;5035592;28;20112;-62
2020/12/12 00:06:34;;;;;;;12.20;8.63;;;1.60;77.70;;;;;;5029626;28;20085;-61
2020/12/12 00:09:00;;;;;;;10.75;7.72;;;1.70;77.70;;;;;;5035332;28;20021;-61
2020/12/12 00:11:26;;;;;;;11.63;7.93;;;1.70;77.70;;;;;;5035573;28;20032;-61
2020/12/12 00:13:51;;;;;;;11.38;8.05;;;1.70;77.30;;;;;;5043156;28;20021;-61
2020/12/12 00:16:17;;;;;;;11.70;8.63;;;1.70;77.40;;;;;;5036290;28;20029;-61
2020/12/12 00:18:44;;;;;;;14.55;8.55;;;1.70;77.50;;;;;;5035401;28;20038;-61
2020/12/12 00:21:14;;;;;;;13.05;8.75;;;1.70;77.20;;;;;;5033495;28;20057;-62
2020/12/12 00:23:40;;;;;;;13.98;8.27;;;1.70;77.10;;;;;;5036725;28;20060;-61
2020/12/12 00:26:06;;;;;;;13.50;8.43;;;1.60;77.20;;;;;;5035028;28;20029;-61
2020/12/12 00:28:34;;;;;;;14.40;8.52;;;1.70;77.00;;;;;;5040400;28;20044;-62
2020/12/12 00:31:00;;;;;;;11.73;7.45;;;1.70;76.70;;;;;;5033521;28;20026;-62
2020/12/12 00:33:25;;;;;;;11.32;7.53;;;1.60;76.60;;;;;;5037016;28;20487;-62
2020/12/12 00:35:51;;;;;;;12.60;8.48;;;1.60;76.30;;;;;;5035364;28;20021;-62
2020/12/12 00:38:17;;;;;;;14.95;9.23;;;1.60;76.40;;;;;;5045844;28;20068;-61
2020/12/12 00:40:43;;;;;;;13.30;8.05;;;1.50;75.90;;;;;;5035227;28;20021;-61
2020/12/12 00:43:09;;;;;;;12.57;8.57;;;1.50;75.90;;;;;;5040392;28;20029;-62
2020/12/12 00:45:34;;;;;;;12.63;8.35;;;1.40;75.70;;;;;;5034934;28;20030;-62
2020/12/12 00:48:01;;;;;;;11.45;7.20;;;1.40;76.20;;;;;;5034706;28;20030;-61
2020/12/12 00:50:27;;;;;;;14.57;8.30;;;1.40;76.20;;;;;;5035189;28;20033;-62
2020/12/12 00:52:52;;;;;;;11.27;7.50;;;1.40;76.10;;;;;;5037595;28;20032;-62
2020/12/12 00:55:18;;;;;;;9.52;7.32;;;1.30;76.10;;;;;;5037799;28;20082;-62
2020/12/12 00:57:45;;;;;;;13.38;8.38;;;1.30;75.90;;;;;;5030381;28;20036;-62
2020/12/12 01:00:11;;;;;;;14.25;8.25;;;1.30;75.80;;;;;;5035374;28;20033;-62
2020/12/12 01:02:37;;;;;;;13.50;8.00;;;1.30;75.80;;;;;;5037084;28;20042;-62
2020/12/12 01:05:04;;;;;;;10.80;7.65;;;1.30;75.90;;;;;;5042834;28;20104;-62
2020/12/12 01:07:29;;;;;;;10.73;7.47;;;1.30;75.80;;;;;;5037591;28;20029;-62
2020/12/12 01:09:55;;;;;;;10.32;7.57;;;1.30;75.90;;;;;;5035382;28;20026;-62
2020/12/12 01:12:21;;;;;;;13.63;8.73;;;1.30;75.90;;;;;;5037135;28;20049;-62
2020/12/12 01:14:47;;;;;;;10.13;7.10;;;1.20;75.50;;;;;;5031698;28;20025;-62
2020/12/12 01:17:12;;;;;;;11.30;7.07;;;1.20;75.30;;;;;;5041238;28;20458;-62
2020/12/12 01:19:38;;;;;;;9.68;7.00;;;1.20;75.20;;;;;;5034944;28;20479;-62
2020/12/12 01:22:04;;;;;;;10.63;7.07;;;1.20;75.20;;;;;;5037261;28;20057;-62
2020/12/12 01:24:29;;;;;;;13.38;7.63;;;1.10;75.30;;;;;;5041600;28;20138;-62
2020/12/12 01:26:55;;;;;;;13.18;8.38;;;1.10;75.00;;;;;;5042170;28;20049;-62
2020/12/12 01:29:21;;;;;;;11.77;7.43;;;1.10;74.90;;;;;;5058482;28;20100;-62
2020/12/12 01:31:50;;;;;;;10.65;7.85;;;1.10;75.20;;;;;;5058713;28;20087;-62
2020/12/12 01:34:16;;;;;;;11.35;7.18;;;1.10;75.10;;;;;;5057556;28;20025;-62
2020/12/12 01:36:42;;;;;;;11.15;7.47;;;1.10;75.20;;;;;;5058958;28;20021;-62
2020/12/12 01:39:08;;;;;;;10.23;7.35;;;1.10;75.40;;;;;;5044684;28;20053;-62
2020/12/12 01:41:33;;;;;;;13.13;8.23;;;1.10;75.20;;;;;;5058357;28;20087;-62
2020/12/12 01:43:59;;;;;;;12.18;8.07;;;1.00;75.00;;;;;;5057938;28;20021;-62
2020/12/12 01:46:26;;;;;;;12.32;8.70;;;1.10;75.10;;;;;;5050976;28;20028;-62
2020/12/12 01:48:54;;;;;;;12.30;8.18;;;1.00;75.20;;;;;;5045720;28;20014;-61
2020/12/12 01:51:22;;;;;;;12.02;7.93;;;1.10;75.30;;;;;;5055945;28;20017;-62
2020/12/12 01:53:50;;;;;;;9.77;6.68;;;1.10;75.20;;;;;;5056750;28;20021;-62
2020/12/12 01:56:17;;;;;;;12.70;7.25;;;1.10;75.10;;;;;;5057344;28;20055;-62
2020/12/12 01:58:44;;;;;;;11.02;7.18;;;1.10;75.10;;;;;;5058460;28;20033;-62
2020/12/12 02:01:12;;;;;;;15.38;7.97;;;1.10;74.80;;;;;;5057463;28;20032;-62
2020/12/12 02:03:42;;;;;;;9.52;7.07;;;1.10;74.60;;;;;;5057074;28;20513;-62
2020/12/12 02:06:12;;;;;;;12.40;7.55;;;1.00;74.40;;;;;;5058405;28;20025;-62
2020/12/12 02:08:38;;;;;;;13.27;7.90;;;1.00;74.60;;;;;;5053728;28;20021;-62
2020/12/12 02:11:08;;;;;;;13.77;8.15;;;1.00;74.40;;;;;;5058090;28;20445;-62
2020/12/12 02:13:34;;;;;;;13.05;7.93;;;0.90;74.10;;;;;;5057397;28;20063;-62
2020/12/12 02:15:59;;;;;;;11.75;7.80;;;0.90;74.20;;;;;;5058006;28;20025;-62
2020/12/12 02:18:25;;;;;;;12.10;7.72;;;0.90;74.30;;;;;;5057693;28;20032;-62
2020/12/12 02:20:52;;;;;;;12.30;7.55;;;0.90;74.20;;;;;;5057161;28;20029;-62
2020/12/12 02:23:19;;;;;;;12.32;7.45;;;0.80;74.30;;;;;;5057153;28;20021;-62
2020/12/12 02:25:45;;;;;;;12.23;7.88;;;0.80;74.50;;;;;;5040159;28;20094;-62
2020/12/12 02:28:14;;;;;;;11.93;7.55;;;0.80;74.30;;;;;;5057523;28;20123;-62
2020/12/12 02:30:40;;;;;;;12.13;7.63;;;0.80;74.60;;;;;;5057244;28;20017;-62
2020/12/12 02:33:05;;;;;;;10.40;7.53;;;0.80;74.50;;;;;;5060961;28;20124;-62
2020/12/12 02:35:31;;;;;;;10.77;6.55;;;0.80;74.60;;;;;;5057055;28;20025;-62
2020/12/12 02:37:57;;;;;;;10.50;7.82;;;0.80;74.60;;;;;;5057167;28;20057;-62
2020/12/12 02:40:22;;;;;;;13.57;7.78;;;0.90;74.60;;;;;;5057453;28;20035;-62
2020/12/12 02:42:48;;;;;;;14.43;8.10;;;0.80;74.40;;;;;;5056868;28;20044;-62
2020/12/12 02:45:14;;;;;;;11.45;7.93;;;0.80;74.00;;;;;;5056713;28;20501;-62
2020/12/12 02:47:40;;;;;;;20.70;7.97;;;0.80;74.00;;;;;;5056572;28;20029;-62
2020/12/12 02:50:12;;;;;;;10.80;7.45;;;0.80;74.10;;;;;;5056410;28;20033;-62
2020/12/12 02:52:40;;;;;;;9.23;6.88;;;0.80;74.10;;;;;;5047742;28;20542;-62
2020/12/12 02:55:07;;;;;;;10.23;7.22;;;0.80;74.00;;;;;;5057806;28;20022;-62
2020/12/12 02:57:34;;;;;;;18.42;8.18;;;0.80;74.20;;;;;;5055964;28;20020;-62
2020/12/12 03:00:00;;;;;;;10.50;7.22;;;0.80;74.00;;;;;;5056573;28;20025;-62
2020/12/12 03:02:26;;;;;;;12.65;8.02;;;0.80;73.90;;;;;;5055640;28;20484;-62
2020/12/12 03:04:52;;;;;;;10.25;7.50;;;0.80;74.10;;;;;;5056423;28;20025;-62
2020/12/12 03:07:18;;;;;;;11.15;7.07;;;0.80;73.70;;;;;;5056387;28;20112;-62
2020/12/12 03:09:44;;;;;;;11.35;7.50;;;0.80;73.50;;;;;;5057287;28;20104;-62
2020/12/12 03:12:10;;;;;;;9.45;7.18;;;0.80;73.50;;;;;;5056964;28;20126;-62
2020/12/12 03:14:36;;;;;;;12.68;7.65;;;0.70;73.00;;;;;;5056408;28;20365;-62
2020/12/12 03:17:02;;;;;;;11.50;7.72;;;0.70;73.20;;;;;;5056283;28;20032;-62
2020/12/12 03:19:28;;;;;;;11.68;7.18;;;0.60;73.00;;;;;;5056175;28;20479;-62
2020/12/12 03:21:54;;;;;;;11.73;7.85;;;0.60;73.20;;;;;;5056342;28;20776;-62
2020/12/12 03:24:19;;;;;;;10.43;7.22;;;0.60;73.50;;;;;;5056055;28;20032;-62
2020/12/12 03:26:45;;;;;;;12.82;7.82;;;0.60;73.80;;;;;;5055870;28;20025;-62
2020/12/12 03:29:11;;;;;;;11.32;7.18;;;0.70;73.80;;;;;;5059450;28;20064;-62
2020/12/12 03:31:36;;;;;;;10.93;8.15;;;0.70;73.90;;;;;;5055862;28;20029;-62
2020/12/12 03:34:02;;;;;;;11.57;8.25;;;0.70;73.70;;;;;;5055774;28;20024;-62
2020/12/12 03:36:28;;;;;;;9.43;6.88;;;0.70;73.70;;;;;;5056716;28;20029;-62
2020/12/12 03:38:54;;;;;;;12.10;7.85;;;0.70;73.40;;;;;;5055877;28;20035;-62
2020/12/12 03:41:19;;;;;;;10.70;7.15;;;0.70;73.10;;;;;;5056591;28;20476;-62
2020/12/12 03:43:46;;;;;;;10.60;7.13;;;0.70;73.20;;;;;;5055520;28;20028;-62
2020/12/12 03:46:12;;;;;;;11.82;7.35;;;0.70;73.10;;;;;;5056231;28;20484;-62
2020/12/12 03:48:38;;;;;;;9.77;7.07;;;0.70;72.80;;;;;;5055683;28;20029;-62
2020/12/12 03:51:03;;;;;;;10.75;7.10;;;0.60;73.10;;;;;;5064566;28;20025;-62
2020/12/12 03:53:29;;;;;;;10.50;7.30;;;0.60;73.10;;;;;;5055716;28;20453;-62
2020/12/12 03:55:55;;;;;;;11.05;7.07;;;0.60;73.20;;;;;;5057131;28;20036;-62
2020/12/12 03:58:20;;;;;;;10.07;6.93;;;0.60;73.30;;;;;;5063203;28;20029;-62
2020/12/12 04:00:46;;;;;;;10.77;7.53;;;0.60;73.20;;;;;;5063433;28;20033;-62
2020/12/12 04:03:12;;;;;;;11.52;7.82;;;0.50;73.50;;;;;;5061335;28;20366;-62
2020/12/12 04:05:37;;;;;;;10.63;6.80;;;0.60;73.50;;;;;;5058571;28;20032;-62
2020/12/12 04:08:03;;;;;;;8.13;6.40;;;0.60;73.50;;;;;;5064846;28;20025;-62
2020/12/12 04:10:29;;;;;;;9.77;6.80;;;0.60;74.10;;;;;;5063355;28;20044;-62
2020/12/12 04:12:54;;;;;;;10.18;7.68;;;0.60;73.50;;;;;;5066806;28;20465;-62
2020/12/12 04:15:20;;;;;;;10.50;7.35;;;0.60;73.40;;;;;;5055758;28;20033;-62
2020/12/12 04:17:46;;;;;;;11.95;7.93;;;0.60;73.50;;;;;;5063941;28;20115;-62
2020/12/12 04:20:11;;;;;;;9.85;6.80;;;0.60;73.60;;;;;;5064149;28;20032;-62
2020/12/12 04:22:37;;;;;;;13.90;8.20;;;0.60;73.30;;;;;;5060942;28;20082;-62
2020/12/12 04:25:03;;;;;;;13.07;7.38;;;0.60;73.00;;;;;;5055802;28;20358;-62
2020/12/12 04:27:30;;;;;;;11.10;6.72;;;0.60;73.00;;;;;;5054282;28;20049;-62
2020/12/12 04:29:57;;;;;;;10.13;7.05;;;0.60;73.20;;;;;;5065796;28;20016;-62
2020/12/12 04:32:22;;;;;;;11.25;7.13;;;0.50;73.10;;;;;;5055514;28;20028;-62
2020/12/12 04:34:48;;;;;;;13.88;8.30;;;0.50;73.30;;;;;;5037232;28;20021;-62
2020/12/12 04:37:14;;;;;;;12.90;7.43;;;0.50;73.30;;;;;;5055027;28;20048;-62
2020/12/12 04:39:39;;;;;;;11.18;7.10;;;0.60;73.70;;;;;;5055101;28;20435;-62
2020/12/12 04:42:07;;;;;;;11.20;8.18;;;0.60;73.50;;;;;;5054717;28;20056;-62
2020/12/12 04:44:33;;;;;;;13.50;8.73;;;0.60;73.60;;;;;;5054637;28;20484;-62
2020/12/12 04:47:00;;;;;;;11.00;7.38;;;0.60;73.40;;;;;;5054534;28;20029;-62
2020/12/12 04:49:27;;;;;;;10.98;7.43;;;0.70;73.30;;;;;;5054063;28;20168;-62
2020/12/12 04:51:53;;;;;;;11.80;6.80;;;0.70;73.20;;;;;;5054754;28;20445;-62
2020/12/12 04:54:20;;;;;;;12.65;8.32;;;0.60;73.10;;;;;;5053835;28;20089;-62
2020/12/12 04:56:47;;;;;;;10.18;6.85;;;0.70;73.30;;;;;;5055022;28;20033;-62
2020/12/12 04:59:14;;;;;;;12.65;7.95;;;0.70;73.00;;;;;;5055534;28;20029;-62
2020/12/12 05:01:43;;;;;;;14.25;7.55;;;0.60;72.50;;;;;;5057462;28;20064;-62
2020/12/12 05:04:09;;;;;;;11.70;7.40;;;0.60;72.80;;;;;;5054492;28;20029;-62
2020/12/12 05:06:35;;;;;;;14.63;7.70;;;0.60;73.00;;;;;;5054664;28;20036;-62
2020/12/12 05:09:00;;;;;;;14.20;8.35;;;0.60;73.00;;;;;;5054778;28;20025;-62
2020/12/12 05:11:27;;;;;;;12.85;7.68;;;0.60;73.00;;;;;;5055242;28;20395;-62
2020/12/12 05:13:53;;;;;;;15.63;8.52;;;0.60;73.20;;;;;;5054558;28;20017;-62
2020/12/12 05:16:19;;;;;;;12.15;8.07;;;0.60;72.70;;;;;;5054757;28;20035;-62
2020/12/12 05:18:45;;;;;;;10.65;7.50;;;0.60;72.60;;;;;;5054465;28;20062;-62
2020/12/12 05:21:12;;;;;;;14.63;9.20;;;0.50;72.70;;;;;;5054495;28;20033;-62
2020/12/12 05:23:38;;;;;;;13.20;7.43;;;0.50;72.70;;;;;;5054991;28;20091;-62
2020/12/12 05:26:04;;;;;;;13.75;7.95;;;0.50;72.50;;;;;;5054419;28;20025;-62
2020/12/12 05:28:30;;;;;;;12.98;7.43;;;0.50;72.60;;;;;;5053502;28;20129;-62
2020/12/12 05:30:56;;;;;;;13.07;7.95;;;0.40;72.40;;;;;;5058924;28;20096;-62
2020/12/12 05:33:25;;;;;;;11.90;7.75;;;0.40;72.50;;;;;;5061622;28;20142;-62
2020/12/12 05:35:52;;;;;;;13.35;8.52;;;0.40;72.70;;;;;;5054116;28;20025;-62
2020/12/12 05:38:18;;;;;;;11.07;7.05;;;0.30;72.50;;;;;;5054949;28;20048;-62
2020/12/12 05:40:48;;;;;;;10.30;7.38;;;0.30;72.60;;;;;;5053981;28;20045;-62
2020/12/12 05:43:14;;;;;;;16.20;8.60;;;0.30;73.00;;;;;;5054568;28;20497;-62
2020/12/12 05:45:41;;;;;;;11.82;8.25;;;0.30;73.30;;;;;;5055827;28;20108;-62
2020/12/12 05:48:08;;;;;;;12.15;6.88;;;0.30;73.10;;;;;;5054189;28;20036;-62
2020/12/12 05:50:34;;;;;;;13.90;8.00;;;0.30;73.10;;;;;;5049053;28;20044;-62
2020/12/12 05:53:00;;;;;;;13.52;8.55;;;0.40;73.20;;;;;;5056361;28;20025;-62
2020/12/12 05:55:27;;;;;;;15.02;7.95;;;0.40;72.70;;;;;;5055159;28;20032;-62
2020/12/12 05:57:54;;;;;;;14.07;8.00;;;0.30;72.70;;;;;;5056387;28;20028;-62
2020/12/12 06:00:21;;;;;;;13.52;7.57;;;0.30;73.00;;;;;;5056966;28;20389;-62
2020/12/12 06:02:53;;;;;;;12.63;7.75;;;0.30;73.30;;;;;;5057013;28;20116;-62
2020/12/12 06:05:23;;;;;;;;;;;0.30;73.10;;;;;;5059147;28;20083;-62
2020/12/12 06:07:52;;;;;;;12.98;7.43;;;0.20;73.10;;;;;;5060361;28;20403;-62
2020/12/12 06:10:18;;;;;;;12.45;7.78;;;0.10;73.00;;;;;;5057850;28;20025;-62
2020/12/12 06:12:47;;;;;;;13.02;8.40;;;0.20;73.70;;;;;;5049164;28;20029;-62
2020/12/12 06:15:18;;;;;;;13.38;7.05;;;0.20;73.70;;;;;;5043706;28;20339;-62
2020/12/12 06:18:28;;;;;;;10.93;7.03;;;0.20;74.40;;;;;;5055838;28;20093;-62
2020/12/12 06:20:55;;;;;;;12.02;7.07;;;0.30;74.00;;;;;;4995528;28;20030;-62
2020/12/12 06:23:20;;;;;;;11.50;6.80;;;0.40;73.80;;;;;;5002236;28;20040;-62
2020/12/12 06:25:47;;;;;;;10.52;6.95;;;0.40;73.60;;;;;;5026233;28;20045;-62
2020/12/12 06:28:22;;;;;;;13.38;8.30;;;0.40;73.40;;;;;;5061391;28;20045;-62
2020/12/12 06:30:49;;;;;;;11.88;7.53;;;0.40;73.00;;;;;;5066285;28;20028;-62
2020/12/12 06:33:15;;;;;;;10.93;7.78;;;0.40;72.90;;;;;;5056919;28;20051;-62
2020/12/12 06:35:41;;;;;;;12.68;7.45;;;0.50;73.20;;;;;;5055547;28;20100;-62
2020/12/12 06:38:27;;;;;;;10.90;7.63;;;0.40;73.20;;;;;;5057404;28;20119;-62
2020/12/12 06:40:59;;;;;;;10.40;6.13;;;0.50;73.20;;;;;;5057218;28;20046;-62
2020/12/12 06:43:32;;;;;;;;;;;0.50;73.10;;;;;;5065032;28;20024;-62
2020/12/12 06:45:59;;;;;;;14.27;7.30;;;0.40;72.50;;;;;;5057499;28;19912;-62
2020/12/12 06:48:27;;;;;;;10.80;6.65;;;0.40;73.10;;;;;;5057523;28;20029;-62
2020/12/12 06:50:54;;;;;;;11.20;6.55;;;0.50;73.20;;;;;;5061579;28;20028;-62
2020/12/12 06:53:22;;;;;;;10.32;6.68;;;0.50;73.40;;;;;;5058613;28;20024;-62
2020/12/12 06:56:08;;;;;;;14.90;7.93;;;0.50;73.60;;;;;;5057782;28;20032;-62
2020/12/12 06:58:35;;;;;;;11.90;7.28;;;0.60;73.30;;;;;;5060159;28;20044;-62
2020/12/12 07:01:28;;;;;;;12.25;6.63;;;0.50;72.70;;;;;;5057957;28;20032;-62
2020/12/12 07:03:59;;;;;;;13.15;7.38;;;0.50;72.90;;;;;;5059837;28;20480;-62
2020/12/12 07:06:33;;;;;;;13.82;7.40;;;0.50;73.20;;;;;;5057078;28;20182;-62
2020/12/12 07:09:08;;;;;;;12.50;7.82;;;0.50;73.40;;;;;;5056320;28;20125;-62
2020/12/12 07:11:34;;;;;;;12.60;7.90;;;0.50;72.90;;;;;;5060396;28;20021;-62
2020/12/12 07:14:01;;;;;;;14.20;8.63;;;0.50;72.90;;;;;;5056074;28;20104;-62
2020/12/12 07:16:28;;;;;;;17.70;8.30;;;0.40;72.60;;;;;;5056043;28;20056;-62
2020/12/12 07:18:54;;;;;;;15.82;8.85;;;0.40;73.00;;;;;;5059230;28;20430;-62
2020/12/12 07:21:20;;;;;;;15.13;8.88;;;0.40;73.30;;;;;;5060808;28;20033;-62
2020/12/12 07:23:47;;;;;;;13.75;8.30;;;0.30;73.20;;;;;;5062169;28;20039;-62
2020/12/12 07:26:13;;;;;;;13.10;7.43;;;0.30;73.20;;;;;;5057012;28;20118;-62
2020/12/12 07:28:39;;;;;;;15.85;9.15;;;0.20;73.50;;;;;;5046084;28;20044;-62
2020/12/12 07:31:05;;;;;;;15.27;9.63;;;0.30;73.30;;;;;;5056570;28;20028;-62
2020/12/12 07:33:30;;;;;;;17.05;7.45;;;0.20;73.10;;;;;;5051997;28;20036;-62
2020/12/12 07:35:57;;;;;;;19.65;9.13;;;0.20;73.40;;;;;;5055399;28;20036;-63
2020/12/12 07:38:23;;;;;;;14.85;8.93;;;0.20;73.80;;;;;;5049313;28;20070;-63
2020/12/12 07:40:50;;;;;;;15.95;8.57;;;0.20;74.00;;;;;;5035890;28;20064;-63
2020/12/12 07:43:16;;;;;;;13.77;7.57;;;0.20;73.80;;;;;;5056049;28;20469;-63
2020/12/12 07:48:17;;;;;;;12.68;7.55;;;0.20;73.90;;;;;;5049918;28;20389;-63
2020/12/12 07:50:43;;;;;;;17.20;10.45;;;0.20;73.70;;;;;;5046327;28;20036;-63
2020/12/12 07:53:14;;;;;;;16.83;8.85;;;0.30;73.40;;;;;;5052782;28;20469;-63
2020/12/12 07:55:45;;;;;;;15.45;10.13;;;0.20;73.10;;;;;;5052122;28;20028;-63
2020/12/12 07:58:18;;;;;;;16.85;10.27;;;0.10;73.00;;;;;;5051491;28;20087;-63
2020/12/12 08:00:44;;;;;;;14.45;9.07;;;0.00;72.90;;;;;;5053312;28;20063;-63
2020/12/12 08:03:10;;;;;;;16.70;8.60;;;0.00;73.30;;;;;;5054028;28;20056;-63
2020/12/12 08:05:36;;;;;;;17.48;8.52;;;-0.10;73.80;;;;;;5053176;28;20037;-63
2020/12/12 08:08:11;;;;;;;15.98;8.55;;;-0.10;74.00;;;;;;5053085;28;20036;-63
2020/12/12 08:10:38;;;;;;;15.07;7.88;;;-0.10;74.10;;;;;;5049587;28;20033;-64
2020/12/12 08:13:03;;;;;;;18.13;9.00;;;0.00;74.30;;;;;;5049194;28;20116;-64
2020/12/12 08:15:35;;;;;;;17.17;9.80;;;0.00;74.10;;;;;;5047698;28;20116;-64
2020/12/12 08:18:14;;;;;;;16.45;8.70;;;-0.10;73.70;;;;;;5052379;28;20040;-64
2020/12/12 08:20:40;;;;;;;15.82;8.05;;;-0.10;73.90;;;;;;5047494;28;20037;-64
2020/12/12 08:23:12;;;;;;;19.15;9.82;;;-0.20;74.10;;;;;;5053342;28;20514;-64
2020/12/12 08:25:38;;;;;;;18.50;10.45;;;-0.20;74.20;;;;;;5058069;28;20084;-64
2020/12/12 08:28:08;;;;;;;16.45;8.80;;;-0.20;74.40;;;;;;5054014;28;20041;-64
2020/12/12 08:30:33;;;;;;;13.77;9.32;;;-0.20;74.60;;;;;;5055752;28;20025;-64
2020/12/12 08:33:25;;;;;;;15.30;9.20;;;-0.20;74.60;;;;;;5063146;28;20035;-64
2020/12/12 08:35:51;;;;;;;16.40;8.82;;;-0.20;74.60;;;;;;5044596;28;20040;-64
2020/12/12 08:38:17;;;;;;;14.70;8.73;;;-0.20;74.80;;;;;;5047364;28;20051;-64
2020/12/12 08:40:46;;;;;;;12.82;7.50;;;-0.20;74.80;;;;;;5057967;28;20380;-64
2020/12/12 08:43:13;;;;;;;17.70;8.18;;;-0.10;75.10;;;;;;5054753;28;20039;-64
2020/12/12 08:45:55;;;;;;;18.05;9.63;;;-0.10;75.10;;;;;;5056700;28;20029;-64
2020/12/12 08:48:29;;;;;;;19.83;9.80;;;-0.10;74.30;;;;;;5051427;28;20028;-64
2020/12/12 08:50:57;;;;;;;15.63;9.05;;;-0.20;74.20;;;;;;5054573;28;20441;-64
2020/12/12 08:53:30;;;;;;;16.27;10.57;;;-0.20;74.50;;;;;;5062580;28;20021;-64
2020/12/12 08:56:15;;;;;;;17.30;9.80;;;-0.20;74.60;;;;;;5058905;28;20055;-64
2020/12/12 08:58:44;;;;;;;15.75;9.93;;;-0.30;74.50;;;;;;5043879;28;20069;-64
2020/12/12 09:01:17;;;;;;;16.63;9.55;;;-0.30;75.00;;;;;;5050380;28;20055;-64
2020/12/12 09:04:04;;;;;;;16.70;9.68;;;-0.30;75.20;;;;;;5046073;28;20103;-64
2020/12/12 09:06:43;;;;;;;15.73;8.82;;;-0.30;75.10;;;;;;5042945;28;20056;-64
2020/12/12 09:09:19;;;;;;;13.30;7.88;;;-0.30;75.40;;;;;;5050336;28;20032;-64
2020/12/12 09:11:57;;;;;;;15.52;9.07;;;-0.30;76.10;;;;;;5055740;28;20083;-64
2020/12/12 09:14:24;;;;;;;16.38;8.88;;;-0.30;75.30;;;;;;5051871;28;20108;-64
2020/12/12 09:16:55;;;;;;;17.75;10.40;;;-0.20;75.40;;;;;;5057297;28;20032;-64
2020/12/12 09:19:22;;;;;;;20.33;10.43;;;-0.20;75.30;;;;;;5033629;28;20493;-64
2020/12/12 09:21:49;;;;;;;18.45;9.63;;;-0.20;74.70;;;;;;5052754;28;20397;-64
2020/12/12 09:24:16;;;;;;;15.02;9.00;;;-0.20;75.10;;;;;;5049114;28;20060;-64
2020/12/12 09:26:42;;;;;;;19.38;9.48;;;-0.30;75.40;;;;;;5037839;28;20048;-64
2020/12/12 09:29:08;;;;;;;18.73;9.95;;;-0.30;75.30;;;;;;5053263;28;20075;-64
2020/12/12 09:31:34;;;;;;;19.33;10.63;;;-0.30;75.10;;;;;;5056356;28;20470;-64
2020/12/12 09:34:00;;;;;;;16.42;9.07;;;-0.30;75.20;;;;;;5051949;28;20103;-64
2020/12/12 09:36:26;;;;;;;14.88;9.07;;;-0.30;75.80;;;;;;5055402;28;20437;-64
2020/12/12 09:38:52;;;;;;;14.40;8.18;;;-0.30;75.50;;;;;;5060426;28;20107;-64
2020/12/12 09:41:18;;;;;;;17.88;9.88;;;-0.30;75.50;;;;;;5063097;28;20528;-64
2020/12/12 09:43:44;;;;;;;18.35;10.30;;;-0.20;75.50;;;;;;5053665;28;20104;-64
2020/12/12 09:46:10;;;;;;;16.05;9.93;;;-0.20;75.50;;;;;;5055366;28;20033;-64
2020/12/12 09:48:37;;;;;;;17.48;9.80;;;-0.20;75.30;;;;;;5047748;28;20104;-64
2020/12/12 09:51:04;;;;;;;13.77;8.77;;;-0.30;75.20;;;;;;5052389;28;20017;-64
2020/12/12 09:53:30;;;;;;;15.45;8.25;;;-0.20;75.80;;;;;;5060337;28;20017;-64
2020/12/12 09:55:56;;;;;;;15.52;8.57;;;-0.20;75.70;;;;;;5064411;28;20346;-64
2020/12/12 09:58:25;;;;;;;16.88;9.00;;;0.00;75.70;;;;;;5057856;28;20032;-64
2020/12/12 10:00:51;;;;;;;18.48;9.43;;;0.00;75.20;;;;;;5057681;28;20142;-64
2020/12/12 10:03:18;;;;;;;17.10;9.02;;;0.10;75.20;;;;;;5049744;28;20075;-64
2020/12/12 10:05:43;;;;;;;15.45;8.45;;;0.10;74.90;;;;;;5055500;28;20025;-64
2020/12/12 10:08:09;;;;;;;15.85;9.13;;;0.10;74.90;;;;;;5052794;28;20392;-64
2020/12/12 10:10:35;;;;;;;15.98;8.40;;;0.10;75.20;;;;;;5058164;28;20036;-64
2020/12/12 10:13:01;;;;;;;12.50;7.93;;;0.10;75.40;;;;;;5058272;28;20361;-64
2020/12/12 10:15:27;;;;;;;14.77;8.32;;;0.20;75.50;;;;;;5048767;28;20834;-64
2020/12/12 10:17:54;;;;;;;15.23;8.65;;;0.30;75.50;;;;;;5046999;28;20065;-65
2020/12/12 10:20:22;;;;;;;17.75;7.95;;;0.30;75.40;;;;;;5057816;28;20162;-64
2020/12/12 10:22:49;;;;;;;19.40;10.70;;;0.40;75.30;;;;;;5056388;28;20032;-64
2020/12/12 10:25:15;;;;;;;16.55;8.27;;;0.40;74.60;;;;;;5066470;28;20024;-64
2020/12/12 10:27:41;;;;;;;14.07;7.82;;;0.30;74.10;;;;;;5054737;28;20047;-64
2020/12/12 10:30:09;;;;;;;17.15;8.82;;;0.30;74.60;;;;;;5049202;28;20033;-64
2020/12/12 10:32:36;;;;;;;16.17;8.70;;;0.30;74.70;;;;;;5052708;28;20119;-64
2020/12/12 10:35:02;;;;;;;18.90;9.90;;;0.30;74.50;;;;;;5060034;28;20075;-64
2020/12/12 10:37:27;;;;;;;14.55;8.43;;;0.30;74.80;;;;;;5049361;28;20032;-64
2020/12/12 10:42:22;;;;;;;14.88;8.75;;;0.40;74.80;;;;;;5053682;28;20491;-64
2020/12/12 10:44:47;;;;;;;14.38;8.60;;;0.40;74.40;;;;;;5047470;28;20024;-64
2020/12/12 10:47:13;;;;;;;14.40;8.75;;;0.30;74.10;;;;;;5052041;28;20028;-64
2020/12/12 10:49:39;;;;;;;18.92;9.25;;;0.30;74.50;;;;;;5048948;28;20029;-64
2020/12/12 10:52:06;;;;;;;18.23;10.20;;;0.30;74.40;;;;;;5066254;28;20029;-64
2020/12/12 10:54:32;;;;;;;20.48;10.85;;;0.20;74.20;;;;;;5063736;28;20051;-64
2020/12/12 10:56:58;;;;;;;19.67;9.30;;;0.10;74.50;;;;;;5042343;28;20029;-64
2020/12/12 10:59:25;;;;;;;15.38;8.38;;;0.10;75.00;;;;;;5062523;28;20059;-64
2020/12/12 11:01:52;;;;;;;18.85;9.63;;;0.20;75.40;;;;;;5046166;28;20033;-64
2020/12/12 11:04:18;;;;;;;17.55;8.88;;;0.20;75.40;;;;;;5049229;28;20025;-64
2020/12/12 11:06:44;;;;;;;15.85;7.82;;;0.30;75.10;;;;;;5058253;28;20029;-64
2020/12/12 11:09:10;;;;;;;12.77;7.70;;;0.30;74.80;;;;;;5058466;28;20465;-64
2020/12/12 11:11:39;;;;;;;16.80;9.48;;;0.30;75.00;;;;;;5044888;28;20033;-64
2020/12/12 11:14:06;;;;;;;14.63;8.88;;;0.40;75.30;;;;;;5050023;28;20504;-64
2020/12/12 11:16:32;;;;;;;17.27;8.32;;;0.40;75.00;;;;;;5054213;28;20029;-64
2020/12/12 11:18:58;;;;;;;18.33;9.60;;;0.40;74.60;;;;;;5056985;28;20041;-64
2020/12/12 11:21:24;;;;;;;13.18;7.97;;;0.40;74.60;;;;;;5071571;28;20032;-65
2020/12/12 11:23:50;;;;;;;15.20;9.07;;;0.40;74.70;;;;;;5059619;28;20032;-64
2020/12/12 11:26:17;;;;;;;20.42;10.05;;;0.40;74.70;;;;;;5057915;28;20042;-64
2020/12/12 11:28:44;;;;;;;15.85;8.75;;;0.30;74.90;;;;;;5057121;28;20061;-64
2020/12/12 11:31:19;;;;;;;12.10;8.20;;;0.40;75.30;;;;;;5040912;28;20119;-64
2020/12/12 11:33:48;;;;;;;11.50;7.80;;;0.50;75.50;;;;;;5025298;28;20032;-64
2020/12/12 11:38:48;;;;;;;17.88;9.15;;;0.60;75.60;;;;;;5059775;28;20036;-64
2020/12/12 11:42:02;;;;;;;17.08;9.57;;;0.70;75.50;;;;;;5047196;28;20044;-64
2020/12/12 11:46:37;;;;;;;21.02;9.10;;;0.60;74.50;;;;;;5064197;28;19954;-64
2020/12/12 11:49:03;;;;;;;13.90;9.05;;;0.60;75.00;;;;;;5041104;28;20024;-64
2020/12/12 11:51:29;;;;;;;19.35;9.05;;;0.60;75.10;;;;;;5053792;28;20448;-64
2020/12/12 11:53:55;;;;;;;17.10;9.25;;;0.60;74.80;;;;;;5045857;28;20020;-64
2020/12/12 11:56:23;;;;;;;19.15;8.95;;;0.70;74.90;;;;;;5065967;28;20349;-64
2020/12/12 11:58:48;;;;;;;16.35;9.13;;;0.70;74.80;;;;;;5060322;28;20049;-64
2020/12/12 12:01:25;;;;;;;15.73;8.73;;;0.70;74.70;;;;;;5062487;28;20059;-64
2020/12/12 12:03:51;;;;;;;15.55;8.95;;;0.70;75.00;;;;;;5065138;28;20068;-64
2020/12/12 12:06:18;;;;;;;16.85;9.00;;;0.70;75.00;;;;;;5066594;28;20029;-64
2020/12/12 12:13:40;;;;;;;14.40;9.27;;;0.70;75.20;;;;;;5059606;28;20048;-64
2020/12/12 12:16:06;;;;;;;19.73;9.60;;;0.70;75.40;;;;;;5062024;28;20056;-64
2020/12/12 12:18:32;;;;;;;18.55;9.43;;;0.80;75.60;;;;;;5063848;28;20416;-64
2020/12/12 12:20:59;;;;;;;14.45;9.15;;;0.80;75.40;;;;;;5060862;28;20476;-64
2020/12/12 12:23:25;;;;;;;16.30;8.95;;;0.80;75.30;;;;;;5064547;28;20357;-63
2020/12/12 12:25:51;;;;;;;16.33;9.65;;;0.80;75.30;;;;;;5059901;28;20041;-64
2020/12/12 12:28:18;;;;;;;23.77;10.13;;;0.80;75.40;;;;;;5042172;28;20055;-64
2020/12/12 12:30:45;;;;;;;18.25;10.18;;;0.70;75.40;;;;;;5063030;28;20017;-64
2020/12/12 12:33:11;;;;;;;21.15;10.32;;;0.70;75.40;;;;;;5057554;28;20032;-64
2020/12/12 12:35:36;;;;;;;19.55;11.25;;;0.70;75.60;;;;;;5069670;28;20024;-64
2020/12/12 12:38:02;;;;;;;18.02;10.23;;;0.70;75.90;;;;;;5071322;28;20036;-64
2020/12/12 12:40:28;;;;;;;16.52;8.60;;;0.80;75.70;;;;;;5063652;28;20437;-64
2020/12/12 12:42:56;;;;;;;18.90;10.32;;;0.80;75.80;;;;;;5070436;28;20016;-64
2020/12/12 12:45:22;;;;;;;22.35;10.45;;;0.80;75.80;;;;;;5057190;28;20028;-64
2020/12/12 12:47:48;;;;;;;25.60;11.07;;;0.70;75.80;;;;;;5057179;28;20047;-64
2020/12/12 12:50:14;;;;;;;16.83;9.38;;;0.80;75.90;;;;;;5053445;28;20025;-64
2020/12/12 12:52:40;;;;;;;18.52;10.85;;;0.70;75.60;;;;;;5061474;28;20416;-64
2020/12/12 12:55:06;;;;;;;18.63;10.55;;;0.70;75.70;;;;;;5060870;28;20047;-64
2020/12/12 12:57:32;;;;;;;18.58;10.63;;;0.70;75.90;;;;;;5059517;28;20079;-64
2020/12/12 12:59:58;;;;;;;22.35;10.85;;;0.70;76.10;;;;;;5058553;28;20494;-64
2020/12/12 13:02:24;;;;;;;20.38;11.00;;;0.70;76.00;;;;;;5052648;28;20032;-64